sensor_id;sensor_type;location;lat;lon;timestamp;pressure;altitude;pressure_sealevel;temperature;humidity
56272;BME280;42177;48.914;18.160;2023-09-30T00:03:36;990.3;;;15.4;88.7
56272;BME280;42177;48.914;18.160;2023-09-30T00:08:36;990.3;;;15.4;88.7
56272;BME280;42177;48.914;18.160;2023-09-30T00:13:36;990.3;;;15.6;88.1
56272;BME280;42177;48.914;18.160;2023-09-30T00:18:36;990.3;;;15.6;88.1
56272;BME280;42177;48.914;18.160;2023-09-30T00:23:36;990.4;;;15.4;88.8
56272;BME280;42177;48.914;18.160;2023-09-30T00:28:36;990.4;;;15.4;88.8
56272;BME280;42177;48.914;18.160;2023-09-30T00:33:36;990.3;;;15.2;89.8
56272;BME280;42177;48.914;18.160;2023-09-30T00:38:36;990.3;;;15.2;89.8
56272;BME280;42177;48.914;18.160;2023-09-30T00:43:36;990.1;;;15.3;89.8
56272;BME280;42177;48.914;18.160;2023-09-30T00:48:36;990.1;;;15.3;89.8
56272;BME280;42177;48.914;18.160;2023-09-30T00:53:36;990.1;;;15.3;89.2
56272;BME280;42177;48.914;18.160;2023-09-30T00:58:36;990.1;;;15.3;89.2
56272;BME280;42177;48.914;18.160;2023-09-30T01:03:36;990;;;15.3;89.4
56272;BME280;42177;48.914;18.160;2023-09-30T01:08:36;990;;;15.3;89.4
56272;BME280;42177;48.914;18.160;2023-09-30T01:13:36;990.2;;;15.1;91.2
56272;BME280;42177;48.914;18.160;2023-09-30T01:18:36;990.2;;;15.1;91.2
56272;BME280;42177;48.914;18.160;2023-09-30T01:23:36;990.2;;;15.1;90.6
56272;BME280;42177;48.914;18.160;2023-09-30T01:28:36;990.2;;;15.1;90.6
56272;BME280;42177;48.914;18.160;2023-09-30T01:33:36;990.3;;;14.9;92.1
56272;BME280;42177;48.914;18.160;2023-09-30T01:38:36;990.3;;;14.9;92.1
56272;BME280;42177;48.914;18.160;2023-09-30T01:43:36;990.2;;;15;91.7
56272;BME280;42177;48.914;18.160;2023-09-30T01:48:36;990.2;;;15;91.7
56272;BME280;42177;48.914;18.160;2023-09-30T01:53:36;990.2;;;15.4;89.4
56272;BME280;42177;48.914;18.160;2023-09-30T01:58:36;990.2;;;15.4;89.4
56272;BME280;42177;48.914;18.160;2023-09-30T02:03:36;990.2;;;15.3;89.8
56272;BME280;42177;48.914;18.160;2023-09-30T02:08:36;990.2;;;15.3;89.8
56272;BME280;42177;48.914;18.160;2023-09-30T02:13:36;990.1;;;15;91.1
56272;BME280;42177;48.914;18.160;2023-09-30T02:18:36;990.1;;;15;91.1
56272;BME280;42177;48.914;18.160;2023-09-30T02:23:36;990.2;;;15;91.6
56272;BME280;42177;48.914;18.160;2023-09-30T02:28:36;990.2;;;15;91.6
56272;BME280;42177;48.914;18.160;2023-09-30T02:33:36;990.1;;;15;91.5
56272;BME280;42177;48.914;18.160;2023-09-30T02:38:36;990.1;;;15;91.5
56272;BME280;42177;48.914;18.160;2023-09-30T02:43:36;990;;;15.1;91.2
56272;BME280;42177;48.914;18.160;2023-09-30T02:48:36;990;;;15.1;91.2
56272;BME280;42177;48.914;18.160;2023-09-30T02:53:36;990;;;14.8;93
56272;BME280;42177;48.914;18.160;2023-09-30T02:58:36;990;;;14.8;93
56272;BME280;42177;48.914;18.160;2023-09-30T03:03:36;990;;;14.4;95.7
56272;BME280;42177;48.914;18.160;2023-09-30T03:08:36;990;;;14.4;95.7
56272;BME280;42177;48.914;18.160;2023-09-30T03:13:36;990.2;;;14.7;94.9
56272;BME280;42177;48.914;18.160;2023-09-30T03:18:36;990.2;;;14.7;94.9
56272;BME280;42177;48.914;18.160;2023-09-30T03:23:36;990.1;;;14.6;95.6
56272;BME280;42177;48.914;18.160;2023-09-30T03:28:36;990.1;;;14.6;95.6
56272;BME280;42177;48.914;18.160;2023-09-30T03:33:37;990.2;;;14.9;94.8
56272;BME280;42177;48.914;18.160;2023-09-30T03:38:36;990.2;;;14.9;94.8
56272;BME280;42177;48.914;18.160;2023-09-30T03:43:36;990.1;;;15.3;93.2
56272;BME280;42177;48.914;18.160;2023-09-30T03:48:36;990.1;;;15.3;93.2
56272;BME280;42177;48.914;18.160;2023-09-30T03:53:36;989.8;;;15.1;94
56272;BME280;42177;48.914;18.160;2023-09-30T03:58:36;989.8;;;15.1;94
56272;BME280;42177;48.914;18.160;2023-09-30T04:03:36;989.8;;;15;95.2
56272;BME280;42177;48.914;18.160;2023-09-30T04:08:36;989.8;;;15;95.2
56272;BME280;42177;48.914;18.160;2023-09-30T04:13:36;989.7;;;14.8;96.4
56272;BME280;42177;48.914;18.160;2023-09-30T04:18:36;989.7;;;14.8;96.4
56272;BME280;42177;48.914;18.160;2023-09-30T04:23:36;989.7;;;15.2;95.7
56272;BME280;42177;48.914;18.160;2023-09-30T04:28:36;989.7;;;15.2;95.7
56272;BME280;42177;48.914;18.160;2023-09-30T04:33:36;989.8;;;15;97
56272;BME280;42177;48.914;18.160;2023-09-30T04:38:36;989.8;;;15;97
56272;BME280;42177;48.914;18.160;2023-09-30T04:43:36;989.9;;;14.5;100
56272;BME280;42177;48.914;18.160;2023-09-30T04:48:36;989.9;;;14.5;100
56272;BME280;42177;48.914;18.160;2023-09-30T04:53:36;990.1;;;14.7;99.7
56272;BME280;42177;48.914;18.160;2023-09-30T04:58:36;990.1;;;14.7;99.7
56272;BME280;42177;48.914;18.160;2023-09-30T05:03:36;990.1;;;15.1;97.9
56272;BME280;42177;48.914;18.160;2023-09-30T05:08:36;990.1;;;15.1;97.9
56272;BME280;42177;48.914;18.160;2023-09-30T05:13:36;990.4;;;15;99.2
56272;BME280;42177;48.914;18.160;2023-09-30T05:18:36;990.4;;;15;99.2
56272;BME280;42177;48.914;18.160;2023-09-30T05:23:36;990.5;;;14.7;100
56272;BME280;42177;48.914;18.160;2023-09-30T05:28:36;990.5;;;14.7;100
56272;BME280;42177;48.914;18.160;2023-09-30T05:33:36;990.5;;;15.1;99
56272;BME280;42177;48.914;18.160;2023-09-30T05:38:36;990.5;;;15.1;99
56272;BME280;42177;48.914;18.160;2023-09-30T05:43:36;990.4;;;15.1;99.5
56272;BME280;42177;48.914;18.160;2023-09-30T05:48:36;990.4;;;15.1;99.5
56272;BME280;42177;48.914;18.160;2023-09-30T05:53:36;990.7;;;15.2;100
56272;BME280;42177;48.914;18.160;2023-09-30T05:58:36;990.7;;;15.2;100
56272;BME280;42177;48.914;18.160;2023-09-30T06:03:36;990.9;;;15.4;99.5
56272;BME280;42177;48.914;18.160;2023-09-30T06:08:36;990.9;;;15.4;99.5
56272;BME280;42177;48.914;18.160;2023-09-30T06:13:36;990.9;;;15.6;100
56272;BME280;42177;48.914;18.160;2023-09-30T06:18:36;990.9;;;15.6;100
56272;BME280;42177;48.914;18.160;2023-09-30T06:23:36;991.1;;;15.3;100
56272;BME280;42177;48.914;18.160;2023-09-30T06:28:36;991.1;;;15.3;100
56272;BME280;42177;48.914;18.160;2023-09-30T06:33:36;991.1;;;16.6;100
56272;BME280;42177;48.914;18.160;2023-09-30T06:38:36;991.1;;;16.6;100
56272;BME280;42177;48.914;18.160;2023-09-30T06:43:36;991.2;;;16.9;93.8
56272;BME280;42177;48.914;18.160;2023-09-30T06:48:36;991.2;;;16.9;93.8
56272;BME280;42177;48.914;18.160;2023-09-30T06:53:36;991.1;;;16.7;96.4
56272;BME280;42177;48.914;18.160;2023-09-30T06:58:36;991.1;;;16.7;96.4
56272;BME280;42177;48.914;18.160;2023-09-30T07:03:36;991.3;;;16.1;99.7
56272;BME280;42177;48.914;18.160;2023-09-30T07:08:36;991.3;;;16.1;99.7
56272;BME280;42177;48.914;18.160;2023-09-30T07:13:36;991.2;;;15.9;100
56272;BME280;42177;48.914;18.160;2023-09-30T07:18:36;991.2;;;15.9;100
56272;BME280;42177;48.914;18.160;2023-09-30T07:23:36;991.4;;;16.6;98.4
56272;BME280;42177;48.914;18.160;2023-09-30T07:28:36;991.4;;;16.6;98.4
56272;BME280;42177;48.914;18.160;2023-09-30T07:33:36;991.3;;;16.2;100
56272;BME280;42177;48.914;18.160;2023-09-30T07:38:36;991.3;;;16.2;100
56272;BME280;42177;48.914;18.160;2023-09-30T07:43:36;991.4;;;15.9;100
56272;BME280;42177;48.914;18.160;2023-09-30T07:48:36;991.4;;;15.9;100
56272;BME280;42177;48.914;18.160;2023-09-30T07:53:36;991.6;;;16.1;100
56272;BME280;42177;48.914;18.160;2023-09-30T07:58:36;991.6;;;16.1;100
56272;BME280;42177;48.914;18.160;2023-09-30T08:03:36;991.4;;;16.2;100
56272;BME280;42177;48.914;18.160;2023-09-30T08:08:36;991.4;;;16.2;100
56272;BME280;42177;48.914;18.160;2023-09-30T08:13:36;991.6;;;16.7;100
56272;BME280;42177;48.914;18.160;2023-09-30T08:18:36;991.6;;;16.7;100
56272;BME280;42177;48.914;18.160;2023-09-30T08:23:36;991.5;;;16.8;100
56272;BME280;42177;48.914;18.160;2023-09-30T08:28:36;991.5;;;16.8;100
56272;BME280;42177;48.914;18.160;2023-09-30T08:33:36;991.5;;;17.1;100
56272;BME280;42177;48.914;18.160;2023-09-30T08:38:36;991.5;;;17.1;100
56272;BME280;42177;48.914;18.160;2023-09-30T08:43:37;991.7;;;17.1;100
56272;BME280;42177;48.914;18.160;2023-09-30T08:48:36;991.7;;;17.1;100
56272;BME280;42177;48.914;18.160;2023-09-30T08:53:36;991.6;;;18.1;99.8
56272;BME280;42177;48.914;18.160;2023-09-30T08:58:36;991.6;;;18.1;99.8
56272;BME280;42177;48.914;18.160;2023-09-30T09:03:36;991.6;;;18.1;100
56272;BME280;42177;48.914;18.160;2023-09-30T09:08:36;991.6;;;18.1;100
56272;BME280;42177;48.914;18.160;2023-09-30T09:13:44;991.7;;;18.4;100
56272;BME280;42177;48.914;18.160;2023-09-30T09:18:37;991.7;;;18.4;100
56272;BME280;42177;48.914;18.160;2023-09-30T09:23:40;991.6;;;18.4;100
56272;BME280;42177;48.914;18.160;2023-09-30T09:28:36;991.6;;;18.4;100
56272;BME280;42177;48.914;18.160;2023-09-30T09:33:36;991.5;;;19;98.7
56272;BME280;42177;48.914;18.160;2023-09-30T09:38:43;991.5;;;19;98.7
56272;BME280;42177;48.914;18.160;2023-09-30T09:43:36;991.6;;;19.5;94.9
56272;BME280;42177;48.914;18.160;2023-09-30T09:48:36;991.6;;;19.5;94.9
56272;BME280;42177;48.914;18.160;2023-09-30T09:53:36;991.5;;;19.6;93.7
56272;BME280;42177;48.914;18.160;2023-09-30T09:58:36;991.5;;;19.6;93.7
56272;BME280;42177;48.914;18.160;2023-09-30T10:03:37;991.7;;;19.3;89.6
56272;BME280;42177;48.914;18.160;2023-09-30T10:08:37;991.7;;;19.3;89.6
56272;BME280;42177;48.914;18.160;2023-09-30T10:14:08;991.7;;;18.9;88.7
56272;BME280;42177;48.914;18.160;2023-09-30T10:18:45;991.7;;;18.9;88.7
56272;BME280;42177;48.914;18.160;2023-09-30T10:23:36;991.7;;;18.7;88.4
56272;BME280;42177;48.914;18.160;2023-09-30T10:28:37;991.7;;;18.7;88.4
56272;BME280;42177;48.914;18.160;2023-09-30T10:33:36;991.7;;;18.9;88.8
56272;BME280;42177;48.914;18.160;2023-09-30T10:38:36;991.7;;;18.9;88.8
56272;BME280;42177;48.914;18.160;2023-09-30T10:43:36;991.8;;;18.8;90.1
56272;BME280;42177;48.914;18.160;2023-09-30T10:48:36;991.8;;;18.8;90.1
56272;BME280;42177;48.914;18.160;2023-09-30T10:53:40;991.6;;;19;87.4
56272;BME280;42177;48.914;18.160;2023-09-30T10:58:40;991.6;;;19;87.4
56272;BME280;42177;48.914;18.160;2023-09-30T11:03:36;991.7;;;19.2;86.8
56272;BME280;42177;48.914;18.160;2023-09-30T11:08:36;991.7;;;19.2;86.8
56272;BME280;42177;48.914;18.160;2023-09-30T11:13:36;991.8;;;19.2;86.6
56272;BME280;42177;48.914;18.160;2023-09-30T11:18:36;991.8;;;19.2;86.6
56272;BME280;42177;48.914;18.160;2023-09-30T11:23:36;991.8;;;19.1;88.7
56272;BME280;42177;48.914;18.160;2023-09-30T11:28:37;991.8;;;19.1;88.7
56272;BME280;42177;48.914;18.160;2023-09-30T11:33:53;991.6;;;19.5;87.8
56272;BME280;42177;48.914;18.160;2023-09-30T11:38:36;991.6;;;19.5;87.8
56272;BME280;42177;48.914;18.160;2023-09-30T11:43:36;991.7;;;19;90.3
56272;BME280;42177;48.914;18.160;2023-09-30T11:48:36;991.7;;;19;90.3
56272;BME280;42177;48.914;18.160;2023-09-30T11:53:36;991.7;;;19.3;90.1
56272;BME280;42177;48.914;18.160;2023-09-30T11:58:36;991.7;;;19.3;90.1
56272;BME280;42177;48.914;18.160;2023-09-30T12:03:36;991.7;;;19.8;88.6
56272;BME280;42177;48.914;18.160;2023-09-30T12:08:36;991.7;;;19.8;88.6
56272;BME280;42177;48.914;18.160;2023-09-30T12:13:36;991.7;;;19.3;90.1
56272;BME280;42177;48.914;18.160;2023-09-30T12:18:36;991.7;;;19.3;90.1
56272;BME280;42177;48.914;18.160;2023-09-30T12:23:36;991.7;;;19;91.4
56272;BME280;42177;48.914;18.160;2023-09-30T12:28:36;991.7;;;19;91.4
56272;BME280;42177;48.914;18.160;2023-09-30T12:33:36;991.6;;;19.1;91.4
56272;BME280;42177;48.914;18.160;2023-09-30T12:38:37;991.6;;;19.1;91.4
56272;BME280;42177;48.914;18.160;2023-09-30T12:43:36;991.7;;;18.8;94
56272;BME280;42177;48.914;18.160;2023-09-30T12:48:36;991.7;;;18.8;94
56272;BME280;42177;48.914;18.160;2023-09-30T12:53:36;991.9;;;18.6;97.1
56272;BME280;42177;48.914;18.160;2023-09-30T12:58:36;991.9;;;18.6;97.1
56272;BME280;42177;48.914;18.160;2023-09-30T13:03:36;992;;;18.7;99.5
56272;BME280;42177;48.914;18.160;2023-09-30T13:08:36;992;;;18.7;99.5
56272;BME280;42177;48.914;18.160;2023-09-30T13:13:36;992;;;18.5;100
56272;BME280;42177;48.914;18.160;2023-09-30T13:18:36;992;;;18.5;100
56272;BME280;42177;48.914;18.160;2023-09-30T13:23:36;991.9;;;18.5;100
56272;BME280;42177;48.914;18.160;2023-09-30T13:28:36;991.9;;;18.5;100
56272;BME280;42177;48.914;18.160;2023-09-30T13:33:36;992;;;18.4;100
56272;BME280;42177;48.914;18.160;2023-09-30T13:38:36;992;;;18.4;100
56272;BME280;42177;48.914;18.160;2023-09-30T13:43:36;991.9;;;18.5;100
56272;BME280;42177;48.914;18.160;2023-09-30T13:48:36;991.9;;;18.5;100
56272;BME280;42177;48.914;18.160;2023-09-30T13:53:36;991.8;;;18.8;100
56272;BME280;42177;48.914;18.160;2023-09-30T13:58:36;991.8;;;18.8;100
56272;BME280;42177;48.914;18.160;2023-09-30T14:03:36;991.8;;;18.8;100
56272;BME280;42177;48.914;18.160;2023-09-30T14:08:36;991.8;;;18.8;100
56272;BME280;42177;48.914;18.160;2023-09-30T14:13:36;991.8;;;18.9;100
56272;BME280;42177;48.914;18.160;2023-09-30T14:18:36;991.8;;;18.9;100
56272;BME280;42177;48.914;18.160;2023-09-30T14:23:36;991.9;;;18.9;100
56272;BME280;42177;48.914;18.160;2023-09-30T14:28:36;991.9;;;18.9;100
56272;BME280;42177;48.914;18.160;2023-09-30T14:33:36;992;;;19;100
56272;BME280;42177;48.914;18.160;2023-09-30T14:38:36;992;;;19;100
56272;BME280;42177;48.914;18.160;2023-09-30T14:43:36;991.8;;;18.8;100
56272;BME280;42177;48.914;18.160;2023-09-30T14:48:36;991.8;;;18.8;100
56272;BME280;42177;48.914;18.160;2023-09-30T14:53:36;991.8;;;18.7;100
56272;BME280;42177;48.914;18.160;2023-09-30T14:58:36;991.8;;;18.7;100
56272;BME280;42177;48.914;18.160;2023-09-30T15:03:36;991.8;;;18.5;100
56272;BME280;42177;48.914;18.160;2023-09-30T15:08:36;991.8;;;18.5;100
56272;BME280;42177;48.914;18.160;2023-09-30T15:13:36;992;;;18.6;100
56272;BME280;42177;48.914;18.160;2023-09-30T15:18:36;992;;;18.6;100
56272;BME280;42177;48.914;18.160;2023-09-30T15:23:36;992.2;;;18.6;100
56272;BME280;42177;48.914;18.160;2023-09-30T15:28:36;992.2;;;18.6;100
56272;BME280;42177;48.914;18.160;2023-09-30T15:33:36;992.1;;;18.5;100
56272;BME280;42177;48.914;18.160;2023-09-30T15:38:36;992.1;;;18.5;100
56272;BME280;42177;48.914;18.160;2023-09-30T15:43:36;992.1;;;18.6;100
56272;BME280;42177;48.914;18.160;2023-09-30T15:48:36;992.1;;;18.6;100
56272;BME280;42177;48.914;18.160;2023-09-30T15:53:36;992.1;;;18.4;100
56272;BME280;42177;48.914;18.160;2023-09-30T15:58:36;992.1;;;18.4;100
56272;BME280;42177;48.914;18.160;2023-09-30T16:03:36;992.1;;;18.3;100
56272;BME280;42177;48.914;18.160;2023-09-30T16:08:36;992.1;;;18.3;100
56272;BME280;42177;48.914;18.160;2023-09-30T16:13:36;992.1;;;18.4;100
56272;BME280;42177;48.914;18.160;2023-09-30T16:18:36;992.1;;;18.4;100
56272;BME280;42177;48.914;18.160;2023-09-30T16:23:36;992.2;;;18.2;100
56272;BME280;42177;48.914;18.160;2023-09-30T16:28:36;992.2;;;18.2;100
56272;BME280;42177;48.914;18.160;2023-09-30T16:33:36;992.3;;;18.1;100
56272;BME280;42177;48.914;18.160;2023-09-30T16:38:36;992.3;;;18.1;100
56272;BME280;42177;48.914;18.160;2023-09-30T16:43:36;992.4;;;18;100
56272;BME280;42177;48.914;18.160;2023-09-30T16:48:36;992.4;;;18;100
56272;BME280;42177;48.914;18.160;2023-09-30T16:53:36;992.5;;;17.9;98.1
56272;BME280;42177;48.914;18.160;2023-09-30T16:58:36;992.5;;;17.9;98.1
56272;BME280;42177;48.914;18.160;2023-09-30T17:03:36;992.7;;;17.6;97.2
56272;BME280;42177;48.914;18.160;2023-09-30T17:08:36;992.7;;;17.6;97.2
56272;BME280;42177;48.914;18.160;2023-09-30T17:13:36;992.7;;;17.4;90.5
56272;BME280;42177;48.914;18.160;2023-09-30T17:18:36;992.7;;;17.4;90.5
56272;BME280;42177;48.914;18.160;2023-09-30T17:23:36;992.9;;;17.1;84.8
56272;BME280;42177;48.914;18.160;2023-09-30T17:28:36;992.9;;;17.1;84.8
56272;BME280;42177;48.914;18.160;2023-09-30T17:33:36;993.1;;;16.8;84.2
56272;BME280;42177;48.914;18.160;2023-09-30T17:38:36;993.1;;;16.8;84.2
56272;BME280;42177;48.914;18.160;2023-09-30T17:43:36;993.2;;;16.6;88.9
56272;BME280;42177;48.914;18.160;2023-09-30T17:48:36;993.2;;;16.6;88.9
56272;BME280;42177;48.914;18.160;2023-09-30T17:53:36;993.3;;;16.5;95.5
56272;BME280;42177;48.914;18.160;2023-09-30T17:58:36;993.3;;;16.5;95.5
56272;BME280;42177;48.914;18.160;2023-09-30T18:03:36;993.4;;;16.7;91.4
56272;BME280;42177;48.914;18.160;2023-09-30T18:08:36;993.4;;;16.7;91.4
56272;BME280;42177;48.914;18.160;2023-09-30T18:13:37;993.4;;;16.5;92
56272;BME280;42177;48.914;18.160;2023-09-30T18:18:37;993.4;;;16.5;92
56272;BME280;42177;48.914;18.160;2023-09-30T18:23:36;993.5;;;16.5;90.7
56272;BME280;42177;48.914;18.160;2023-09-30T18:28:36;993.5;;;16.5;90.7
56272;BME280;42177;48.914;18.160;2023-09-30T18:33:36;993.5;;;16.3;90.4
56272;BME280;42177;48.914;18.160;2023-09-30T18:38:36;993.5;;;16.3;90.4
56272;BME280;42177;48.914;18.160;2023-09-30T18:43:36;993.6;;;16.2;90.9
56272;BME280;42177;48.914;18.160;2023-09-30T18:48:36;993.6;;;16.2;90.9
56272;BME280;42177;48.914;18.160;2023-09-30T18:53:36;993.7;;;16.2;89.6
56272;BME280;42177;48.914;18.160;2023-09-30T18:58:36;993.7;;;16.2;89.6
56272;BME280;42177;48.914;18.160;2023-09-30T19:03:36;993.7;;;15.8;92.3
56272;BME280;42177;48.914;18.160;2023-09-30T19:08:36;993.7;;;15.8;92.3
56272;BME280;42177;48.914;18.160;2023-09-30T19:13:36;993.8;;;15.4;94.7
56272;BME280;42177;48.914;18.160;2023-09-30T19:18:36;993.8;;;15.4;94.7
56272;BME280;42177;48.914;18.160;2023-09-30T19:23:36;993.8;;;15.2;96.4
56272;BME280;42177;48.914;18.160;2023-09-30T19:28:36;993.8;;;15.2;96.4
56272;BME280;42177;48.914;18.160;2023-09-30T19:33:36;993.8;;;15.1;97.6
56272;BME280;42177;48.914;18.160;2023-09-30T19:38:36;993.8;;;15.1;97.6
56272;BME280;42177;48.914;18.160;2023-09-30T19:43:36;993.9;;;14.9;98.2
56272;BME280;42177;48.914;18.160;2023-09-30T19:48:36;993.9;;;14.9;98.2
56272;BME280;42177;48.914;18.160;2023-09-30T19:53:36;994.1;;;14.7;99.9
56272;BME280;42177;48.914;18.160;2023-09-30T19:58:36;994.1;;;14.7;99.9
56272;BME280;42177;48.914;18.160;2023-09-30T20:03:36;993.9;;;14.5;100
56272;BME280;42177;48.914;18.160;2023-09-30T20:08:36;993.9;;;14.5;100
56272;BME280;42177;48.914;18.160;2023-09-30T20:13:36;993.9;;;14.7;99.7
56272;BME280;42177;48.914;18.160;2023-09-30T20:18:36;993.9;;;14.7;99.7
56272;BME280;42177;48.914;18.160;2023-09-30T20:23:36;993.8;;;14.5;98.5
56272;BME280;42177;48.914;18.160;2023-09-30T20:28:36;993.8;;;14.5;98.5
56272;BME280;42177;48.914;18.160;2023-09-30T20:33:36;993.9;;;14.6;97.2
56272;BME280;42177;48.914;18.160;2023-09-30T20:38:36;993.9;;;14.6;97.2
56272;BME280;42177;48.914;18.160;2023-09-30T20:43:36;993.9;;;14.3;98.3
56272;BME280;42177;48.914;18.160;2023-09-30T20:48:36;993.9;;;14.3;98.3
56272;BME280;42177;48.914;18.160;2023-09-30T20:53:36;994;;;14.2;97.9
56272;BME280;42177;48.914;18.160;2023-09-30T20:58:36;994;;;14.2;97.9
56272;BME280;42177;48.914;18.160;2023-09-30T21:03:36;993.8;;;14.4;96.8
56272;BME280;42177;48.914;18.160;2023-09-30T21:08:37;993.8;;;14.4;96.8
56272;BME280;42177;48.914;18.160;2023-09-30T21:13:36;993.7;;;14.1;96.3
56272;BME280;42177;48.914;18.160;2023-09-30T21:18:36;993.7;;;14.1;96.3
56272;BME280;42177;48.914;18.160;2023-09-30T21:23:36;993.8;;;14.1;96.2
56272;BME280;42177;48.914;18.160;2023-09-30T21:28:36;993.8;;;14.1;96.2
56272;BME280;42177;48.914;18.160;2023-09-30T21:33:36;993.8;;;14.3;95.5
56272;BME280;42177;48.914;18.160;2023-09-30T21:38:36;993.8;;;14.3;95.5
56272;BME280;42177;48.914;18.160;2023-09-30T21:43:36;993.8;;;14.3;94.5
56272;BME280;42177;48.914;18.160;2023-09-30T21:48:36;993.8;;;14.3;94.5
56272;BME280;42177;48.914;18.160;2023-09-30T21:53:36;993.9;;;13.9;96.8
56272;BME280;42177;48.914;18.160;2023-09-30T21:58:36;993.9;;;13.9;96.8
56272;BME280;42177;48.914;18.160;2023-09-30T22:03:36;994;;;13.9;98
56272;BME280;42177;48.914;18.160;2023-09-30T22:08:36;994;;;13.9;98
56272;BME280;42177;48.914;18.160;2023-09-30T22:13:36;994;;;13.8;98.6
56272;BME280;42177;48.914;18.160;2023-09-30T22:18:36;994;;;13.8;98.6
56272;BME280;42177;48.914;18.160;2023-09-30T22:23:36;994;;;13.8;97.8
56272;BME280;42177;48.914;18.160;2023-09-30T22:28:36;994;;;13.8;97.8
56272;BME280;42177;48.914;18.160;2023-09-30T22:33:36;994;;;13.5;99.3
56272;BME280;42177;48.914;18.160;2023-09-30T22:38:36;994;;;13.5;99.3
56272;BME280;42177;48.914;18.160;2023-09-30T22:43:36;994;;;13.7;97.4
56272;BME280;42177;48.914;18.160;2023-09-30T22:48:36;994;;;13.7;97.4
56272;BME280;42177;48.914;18.160;2023-09-30T22:53:36;994.1;;;13.8;95.9
56272;BME280;42177;48.914;18.160;2023-09-30T22:58:36;994.1;;;13.8;95.9
56272;BME280;42177;48.914;18.160;2023-09-30T23:03:36;994.3;;;13.4;96.2
56272;BME280;42177;48.914;18.160;2023-09-30T23:08:36;994.3;;;13.4;96.2
56272;BME280;42177;48.914;18.160;2023-09-30T23:13:37;994.3;;;13;98.3
56272;BME280;42177;48.914;18.160;2023-09-30T23:18:37;994.3;;;13;98.3
56272;BME280;42177;48.914;18.160;2023-09-30T23:23:36;994.3;;;13.2;97
56272;BME280;42177;48.914;18.160;2023-09-30T23:28:36;994.3;;;13.2;97
56272;BME280;42177;48.914;18.160;2023-09-30T23:33:36;994.4;;;13;98.3
56272;BME280;42177;48.914;18.160;2023-09-30T23:38:36;994.4;;;13;98.3
56272;BME280;42177;48.914;18.160;2023-09-30T23:43:36;994.3;;;12.8;98.5
56272;BME280;42177;48.914;18.160;2023-09-30T23:48:36;994.3;;;12.8;98.5
56272;BME280;42177;48.914;18.160;2023-09-30T23:53:36;994.3;;;13;97.2
56272;BME280;42177;48.914;18.160;2023-09-30T23:58:37;994.3;;;13;97.2
